createdAt,value
2018-07-15T00:02:18.607Z,99.90
2018-07-15T00:04:46.981Z,99.90
2018-07-15T00:07:15.234Z,99.90
2018-07-15T00:09:43.667Z,99.90
2018-07-15T00:12:11.937Z,99.90
2018-07-15T00:14:40.212Z,99.90
2018-07-15T00:17:08.458Z,99.90
2018-07-15T00:19:36.827Z,99.90
2018-07-15T00:22:05.047Z,99.90
2018-07-15T00:24:33.285Z,99.90
2018-07-15T00:27:01.507Z,99.90
2018-07-15T00:29:30.018Z,99.90
2018-07-15T00:31:58.325Z,99.90
2018-07-15T00:34:26.510Z,99.90
2018-07-15T00:36:54.678Z,99.90
2018-07-15T00:39:22.923Z,99.90
2018-07-15T00:41:51.107Z,99.90
2018-07-15T00:44:19.347Z,99.90
2018-07-15T00:46:47.549Z,99.90
2018-07-15T00:49:15.778Z,99.90
2018-07-15T00:51:44.118Z,99.90
2018-07-15T00:54:12.630Z,99.90
2018-07-15T00:56:40.864Z,99.90
2018-07-15T00:59:09.056Z,99.90
2018-07-15T01:01:37.266Z,99.90
2018-07-15T01:04:05.870Z,99.90
2018-07-15T01:06:34.174Z,99.90
2018-07-15T01:09:02.482Z,99.90
2018-07-15T01:11:30.718Z,99.90
2018-07-15T01:13:59.138Z,99.90
2018-07-15T01:16:27.327Z,99.90
2018-07-15T01:18:55.848Z,99.90
2018-07-15T01:21:24.026Z,99.90
2018-07-15T01:23:52.245Z,99.90
2018-07-15T01:26:20.514Z,99.90
2018-07-15T01:28:48.797Z,99.90
2018-07-15T01:33:45.005Z,99.90
2018-07-15T01:36:13.190Z,99.90
2018-07-15T01:38:41.839Z,99.90
2018-07-15T01:41:10.159Z,99.90
2018-07-15T01:43:38.645Z,99.90
2018-07-15T01:46:07.094Z,99.90
2018-07-15T01:51:03.181Z,99.90
2018-07-15T01:53:31.425Z,99.90
2018-07-15T01:55:59.694Z,99.90
2018-07-15T01:58:27.868Z,99.90
2018-07-15T02:00:56.089Z,99.90
2018-07-15T02:03:24.250Z,99.90
2018-07-15T02:05:52.599Z,99.90
2018-07-15T02:08:20.866Z,99.90
2018-07-15T02:10:49.226Z,99.90
2018-07-15T02:13:17.612Z,99.90
2018-07-15T02:15:46.097Z,99.90
2018-07-15T02:18:14.266Z,99.90
2018-07-15T02:20:42.502Z,99.90
2018-07-15T02:23:10.681Z,99.90
2018-07-15T02:25:38.852Z,99.90
2018-07-15T02:28:07.051Z,99.90
2018-07-15T02:30:35.382Z,99.90
2018-07-15T02:33:03.719Z,99.90
2018-07-15T02:35:32.018Z,99.90
2018-07-15T02:38:00.386Z,99.90
2018-07-15T02:40:28.842Z,99.90
2018-07-15T02:42:57.174Z,99.90
2018-07-15T02:45:25.371Z,99.90
2018-07-15T02:47:53.682Z,99.90
2018-07-15T02:50:21.887Z,99.90
2018-07-15T02:52:50.074Z,99.90
2018-07-15T02:55:18.319Z,99.90
2018-07-15T02:57:46.513Z,99.90
2018-07-15T03:00:14.689Z,99.90
2018-07-15T03:02:42.849Z,99.90
2018-07-15T03:05:11.121Z,99.90
2018-07-15T03:10:08.482Z,99.90
2018-07-15T03:12:36.670Z,99.90
2018-07-15T03:15:04.999Z,99.90
2018-07-15T03:17:33.196Z,99.90
2018-07-15T03:20:01.515Z,99.90
2018-07-15T03:22:29.679Z,99.90
2018-07-15T03:24:57.943Z,99.90
2018-07-15T03:27:26.238Z,99.90
2018-07-15T03:29:54.453Z,99.90
2018-07-15T03:32:22.666Z,99.90
2018-07-15T03:34:50.842Z,99.90
2018-07-15T03:37:19.024Z,99.90
2018-07-15T03:39:47.359Z,99.90
2018-07-15T03:42:15.502Z,99.90
2018-07-15T03:44:43.735Z,99.90
2018-07-15T03:47:12.087Z,99.90
2018-07-15T03:49:40.289Z,99.90
2018-07-15T03:52:08.521Z,99.90
2018-07-15T03:54:36.729Z,99.90
2018-07-15T03:57:05.211Z,99.90
2018-07-15T03:59:33.373Z,99.90
2018-07-15T04:02:01.570Z,99.90
2018-07-15T04:04:29.740Z,99.90
2018-07-15T04:06:58.142Z,99.90
2018-07-15T04:09:26.310Z,99.90
2018-07-15T04:11:54.594Z,99.90
2018-07-15T04:16:50.731Z,99.90
2018-07-15T04:19:19.012Z,99.90
2018-07-15T04:21:47.359Z,99.90
2018-07-15T04:24:15.819Z,99.90
2018-07-15T04:26:44.025Z,99.90
2018-07-15T04:29:12.277Z,99.90
2018-07-15T04:31:40.495Z,99.90
2018-07-15T04:34:08.662Z,99.90
2018-07-15T04:36:36.920Z,99.90
2018-07-15T04:39:06.463Z,99.90
2018-07-15T04:41:34.758Z,99.90
2018-07-15T04:44:03.346Z,99.90
2018-07-15T04:46:31.678Z,99.90
2018-07-15T04:48:59.982Z,99.90
2018-07-15T04:51:28.166Z,99.90
2018-07-15T04:53:56.355Z,99.90
2018-07-15T04:56:26.655Z,99.90
2018-07-15T04:58:54.861Z,99.90
2018-07-15T05:01:23.273Z,99.90
2018-07-15T05:03:51.450Z,99.90
2018-07-15T05:06:19.785Z,99.90
2018-07-15T05:08:48.016Z,99.90
2018-07-15T05:11:16.336Z,99.50
2018-07-15T05:13:44.485Z,99.10
2018-07-15T05:16:12.694Z,98.00
2018-07-15T05:18:40.884Z,96.60
2018-07-15T05:21:09.122Z,95.80
2018-07-15T05:23:37.403Z,95.60
2018-07-15T05:26:05.802Z,94.60
2018-07-15T05:28:34.041Z,93.80
2018-07-15T05:31:02.188Z,93.70
2018-07-15T05:33:30.467Z,94.30
2018-07-15T05:35:58.698Z,95.80
2018-07-15T05:38:26.980Z,96.80
2018-07-15T05:40:55.346Z,98.60
2018-07-15T05:43:23.640Z,99.90
2018-07-15T05:45:51.846Z,99.90
2018-07-15T05:48:20.086Z,99.90
2018-07-15T05:50:48.362Z,99.90
2018-07-15T05:53:16.556Z,99.90
2018-07-15T05:55:44.889Z,99.90
2018-07-15T05:58:13.396Z,99.90
2018-07-15T06:00:41.674Z,99.90
2018-07-15T06:03:09.902Z,99.90
2018-07-15T06:05:38.104Z,99.90
2018-07-15T06:08:06.402Z,99.90
2018-07-15T06:10:34.699Z,99.90
2018-07-15T06:13:03.067Z,99.90
2018-07-15T06:15:31.235Z,99.90
2018-07-15T06:17:59.475Z,99.90
2018-07-15T06:20:27.712Z,99.90
2018-07-15T06:22:56.057Z,99.90
2018-07-15T06:25:24.442Z,99.90
2018-07-15T06:27:52.721Z,99.90
2018-07-15T06:30:20.991Z,99.90
2018-07-15T06:32:49.200Z,99.90
2018-07-15T06:35:17.517Z,99.90
2018-07-15T06:37:45.922Z,99.90
2018-07-15T06:40:14.242Z,99.90
2018-07-15T06:42:42.492Z,99.90
2018-07-15T06:45:10.739Z,99.90
2018-07-15T06:47:39.086Z,99.90
2018-07-15T06:50:07.263Z,99.90
2018-07-15T06:52:35.573Z,99.90
2018-07-15T06:55:04.058Z,99.90
2018-07-15T06:57:32.251Z,99.90
2018-07-15T07:00:00.620Z,99.90
2018-07-15T07:02:28.811Z,99.90
2018-07-15T07:04:57.150Z,99.90
2018-07-15T07:07:25.717Z,99.90
2018-07-15T07:09:53.866Z,99.90
2018-07-15T07:12:22.420Z,99.90
2018-07-15T07:14:50.649Z,99.90
2018-07-15T07:17:18.966Z,99.90
2018-07-15T07:19:47.306Z,99.90
2018-07-15T07:22:15.665Z,99.90
2018-07-15T07:24:43.875Z,99.90
2018-07-15T07:27:12.117Z,99.90
2018-07-15T07:29:40.462Z,99.90
2018-07-15T07:32:08.703Z,99.90
2018-07-15T07:34:36.972Z,99.90
2018-07-15T07:37:05.372Z,99.90
2018-07-15T07:39:33.726Z,99.90
2018-07-15T07:42:02.106Z,99.90
2018-07-15T07:44:30.383Z,99.90
2018-07-15T07:46:58.852Z,99.90
2018-07-15T07:49:27.052Z,99.90
2018-07-15T07:51:55.292Z,99.90
2018-07-15T07:54:23.654Z,99.90
2018-07-15T07:56:52.269Z,99.90
2018-07-15T07:59:20.591Z,99.90
2018-07-15T08:01:48.892Z,99.90
2018-07-15T08:04:17.081Z,99.90
2018-07-15T08:06:45.313Z,99.90
2018-07-15T08:09:13.561Z,99.90
2018-07-15T08:11:41.923Z,99.90
2018-07-15T08:14:10.131Z,99.90
2018-07-15T08:16:38.342Z,99.90
2018-07-15T08:19:06.947Z,99.90
2018-07-15T08:21:35.235Z,99.90
2018-07-15T08:24:03.641Z,99.90
2018-07-15T08:26:31.963Z,99.90
2018-07-15T08:29:00.451Z,99.90
2018-07-15T08:31:28.707Z,99.90
2018-07-15T08:33:56.938Z,99.90
2018-07-15T08:36:25.197Z,99.90
2018-07-15T08:38:53.389Z,99.90
2018-07-15T08:41:21.655Z,99.90
2018-07-15T08:43:50.044Z,99.90
2018-07-15T08:46:18.295Z,99.90
2018-07-15T08:48:46.694Z,99.90
2018-07-15T08:51:15.160Z,99.90
2018-07-15T08:53:43.414Z,99.90
2018-07-15T08:56:11.620Z,99.90
2018-07-15T08:58:40.014Z,99.90
2018-07-15T09:01:08.587Z,99.90
2018-07-15T09:03:36.974Z,99.90
2018-07-15T09:06:06.203Z,99.90
2018-07-15T09:08:34.586Z,99.90
2018-07-15T09:11:03.054Z,99.60
2018-07-15T09:13:31.323Z,99.90
2018-07-15T09:15:59.564Z,99.90
2018-07-15T09:18:27.847Z,99.80
2018-07-15T09:20:56.207Z,99.90
2018-07-15T09:23:24.503Z,99.90
2018-07-15T09:25:52.729Z,99.90
2018-07-15T09:28:21.040Z,99.90
2018-07-15T09:30:49.413Z,99.90
2018-07-15T09:33:17.843Z,99.90
2018-07-15T09:35:46.136Z,99.90
2018-07-15T09:38:14.388Z,99.90
2018-07-15T09:43:10.594Z,99.90
2018-07-15T09:45:38.868Z,99.90
2018-07-15T09:48:07.109Z,99.90
2018-07-15T09:50:35.419Z,99.90
2018-07-15T09:53:03.696Z,99.90
2018-07-15T09:55:31.983Z,99.90
2018-07-15T09:58:00.255Z,99.60
2018-07-15T10:00:34.057Z,98.80
2018-07-15T10:03:02.341Z,98.80
2018-07-15T10:05:30.721Z,98.20
2018-07-15T10:07:59.004Z,98.30
2018-07-15T10:10:27.239Z,98.30
2018-07-15T10:12:55.638Z,98.10
2018-07-15T10:15:24.022Z,97.40
2018-07-15T10:17:52.326Z,97.50
2018-07-15T10:20:20.637Z,97.90
2018-07-15T10:22:49.051Z,97.30
2018-07-15T10:25:17.363Z,97.40
2018-07-15T10:27:45.629Z,97.30
2018-07-15T10:30:13.895Z,96.60
2018-07-15T10:32:42.102Z,96.90
2018-07-15T10:35:10.329Z,96.10
2018-07-15T10:37:38.582Z,96.50
2018-07-15T10:40:06.847Z,95.20
2018-07-15T10:42:35.063Z,90.30
2018-07-15T10:45:03.350Z,89.10
2018-07-15T10:47:31.860Z,89.70
2018-07-15T10:50:00.066Z,91.20
2018-07-15T10:52:28.506Z,91.80
2018-07-15T10:54:56.915Z,92.10
2018-07-15T10:57:25.317Z,91.60
2018-07-15T10:59:53.831Z,91.70
2018-07-15T11:02:22.501Z,92.00
2018-07-15T11:04:50.930Z,90.00
2018-07-15T11:07:19.175Z,82.10
2018-07-15T11:09:47.400Z,81.90
2018-07-15T11:12:15.630Z,82.80
2018-07-15T11:14:43.936Z,84.70
2018-07-15T11:17:12.196Z,86.20
2018-07-15T11:19:40.524Z,85.30
2018-07-15T11:22:08.825Z,86.00
2018-07-15T11:24:37.052Z,87.70
2018-07-15T11:27:05.464Z,88.00
2018-07-15T11:29:34.029Z,87.40
2018-07-15T11:32:02.334Z,89.10
2018-07-15T11:34:30.593Z,89.10
2018-07-15T11:36:59.087Z,89.00
2018-07-15T11:39:27.430Z,89.00
2018-07-15T11:41:55.699Z,87.00
2018-07-15T11:44:23.909Z,86.00
2018-07-15T11:46:52.196Z,85.30
2018-07-15T11:51:48.562Z,84.00
2018-07-15T11:54:16.918Z,83.00
2018-07-15T11:56:45.286Z,81.40
2018-07-15T11:59:13.516Z,83.40
2018-07-15T12:01:41.922Z,84.00
2018-07-15T12:04:10.152Z,84.20
2018-07-15T12:06:38.398Z,83.90
2018-07-15T12:09:07.019Z,82.00
2018-07-15T12:11:35.252Z,82.30
2018-07-15T12:14:03.754Z,78.60
2018-07-15T12:16:32.227Z,80.70
2018-07-15T12:19:00.621Z,78.60
2018-07-15T12:21:29.048Z,77.00
2018-07-15T12:23:57.371Z,78.50
2018-07-15T12:26:25.818Z,81.50
2018-07-15T12:28:54.208Z,81.00
2018-07-15T12:31:22.522Z,81.00
2018-07-15T12:33:50.723Z,79.00
2018-07-15T12:36:19.170Z,77.80
2018-07-15T12:38:47.467Z,76.80
2018-07-15T12:41:15.793Z,75.70
2018-07-15T12:43:44.099Z,75.80
2018-07-15T12:46:12.552Z,74.00
2018-07-15T12:48:41.120Z,76.20
2018-07-15T12:51:09.622Z,78.10
2018-07-15T12:53:37.887Z,77.70
2018-07-15T12:56:06.169Z,77.70
2018-07-15T12:58:34.450Z,78.20
2018-07-15T13:01:02.700Z,77.70
2018-07-15T13:03:30.935Z,78.30
2018-07-15T13:05:59.247Z,78.30
2018-07-15T13:08:27.671Z,77.10
2018-07-15T13:10:56.216Z,77.30
2018-07-15T13:13:24.893Z,77.40
2018-07-15T13:15:53.349Z,77.00
2018-07-15T13:18:21.571Z,76.00
2018-07-15T13:20:50.019Z,76.70
2018-07-15T13:23:18.429Z,74.40
2018-07-15T13:25:46.682Z,75.20
2018-07-15T13:28:15.179Z,73.40
2018-07-15T13:30:43.350Z,75.90
2018-07-15T13:33:11.670Z,77.70
2018-07-15T13:35:40.048Z,79.60
2018-07-15T13:38:08.473Z,80.60
2018-07-15T13:40:36.655Z,80.40
2018-07-15T13:43:04.899Z,80.20
2018-07-15T13:45:33.150Z,79.40
2018-07-15T13:48:01.671Z,77.20
2018-07-15T13:50:31.518Z,76.00
2018-07-15T13:52:59.815Z,76.30
2018-07-15T13:55:28.075Z,76.90
2018-07-15T13:57:56.484Z,77.80
2018-07-15T14:00:24.896Z,77.10
2018-07-15T14:02:53.295Z,75.40
2018-07-15T14:05:21.617Z,76.00
2018-07-15T14:07:49.948Z,75.50
2018-07-15T14:10:18.500Z,74.30
2018-07-15T14:12:46.886Z,74.50
2018-07-15T14:15:15.236Z,74.40
2018-07-15T14:17:43.465Z,73.60
2018-07-15T14:20:11.709Z,75.20
2018-07-15T14:22:39.942Z,74.50
2018-07-15T14:25:08.153Z,73.70
2018-07-15T14:27:36.445Z,74.40
2018-07-15T14:30:05.141Z,73.90
2018-07-15T14:32:33.618Z,74.70
2018-07-15T14:35:01.840Z,75.00
2018-07-15T14:37:30.120Z,73.60
2018-07-15T14:39:58.338Z,74.00
2018-07-15T14:42:26.736Z,74.40
2018-07-15T14:44:55.018Z,74.20
2018-07-15T14:47:23.287Z,74.00
2018-07-15T14:49:51.511Z,74.80
2018-07-15T14:52:20.011Z,73.70
2018-07-15T14:54:48.314Z,73.60
2018-07-15T14:57:16.524Z,74.00
2018-07-15T14:59:44.784Z,73.50
2018-07-15T15:02:13.027Z,74.10
2018-07-15T15:04:41.301Z,74.50
2018-07-15T15:07:09.555Z,73.40
2018-07-15T15:09:37.762Z,74.30
2018-07-15T15:12:06.110Z,75.00
2018-07-15T15:14:34.341Z,75.70
2018-07-15T15:19:30.483Z,75.20
2018-07-15T15:24:26.701Z,77.90
2018-07-15T15:26:55.103Z,75.70
2018-07-15T15:29:23.400Z,75.80
2018-07-15T15:31:51.611Z,75.60
2018-07-15T15:34:19.911Z,75.80
2018-07-15T15:36:48.348Z,76.50
2018-07-15T15:39:16.918Z,76.20
2018-07-15T15:41:45.227Z,76.00
2018-07-15T15:44:13.533Z,75.30
2018-07-15T15:46:42.016Z,75.30
2018-07-15T15:49:10.395Z,76.50
2018-07-15T15:51:38.718Z,75.50
2018-07-15T15:54:07.059Z,75.90
2018-07-15T15:56:35.244Z,75.20
2018-07-15T15:59:03.503Z,76.10
2018-07-15T16:01:31.837Z,76.30
2018-07-15T16:04:00.128Z,76.20
2018-07-15T16:06:28.382Z,76.20
2018-07-15T16:08:56.772Z,74.70
2018-07-15T16:11:24.984Z,77.00
2018-07-15T16:13:53.228Z,76.20
2018-07-15T16:16:21.563Z,76.30
2018-07-15T16:18:50.517Z,75.50
2018-07-15T16:21:18.958Z,74.40
2018-07-15T16:23:47.534Z,74.00
2018-07-15T16:26:16.015Z,73.60
2018-07-15T16:28:44.387Z,72.90
2018-07-15T16:31:12.639Z,73.30
2018-07-15T16:33:40.907Z,73.70
2018-07-15T16:36:09.146Z,74.70
2018-07-15T16:38:37.367Z,73.50
2018-07-15T16:41:05.914Z,74.30
2018-07-15T16:43:34.168Z,74.00
2018-07-15T16:46:02.411Z,74.10
2018-07-15T16:48:30.699Z,74.70
2018-07-15T16:50:59.106Z,74.50
2018-07-15T16:53:27.473Z,75.00
2018-07-15T16:55:56.074Z,75.00
2018-07-15T16:58:24.381Z,75.30
2018-07-15T17:00:52.723Z,76.00
2018-07-15T17:03:21.058Z,76.10
2018-07-15T17:05:49.285Z,75.30
2018-07-15T17:08:17.535Z,75.80
2018-07-15T17:10:45.858Z,74.50
2018-07-15T17:13:14.138Z,74.70
2018-07-15T17:15:42.455Z,75.00
2018-07-15T17:18:10.927Z,74.10
2018-07-15T17:20:39.323Z,73.00
2018-07-15T17:23:07.698Z,73.00
2018-07-15T17:25:35.901Z,73.50
2018-07-15T17:28:04.346Z,73.70
2018-07-15T17:30:32.673Z,73.80
2018-07-15T17:33:00.932Z,74.00
2018-07-15T17:35:29.336Z,74.90
2018-07-15T17:37:57.693Z,74.50
2018-07-15T17:40:26.214Z,74.20
2018-07-15T17:42:54.731Z,73.70
2018-07-15T17:45:23.054Z,73.40
2018-07-15T17:47:51.597Z,73.90
2018-07-15T17:50:20.030Z,74.10
2018-07-15T17:52:48.465Z,74.30
2018-07-15T17:55:16.794Z,75.00
2018-07-15T17:57:45.205Z,75.30
2018-07-15T18:00:13.604Z,75.20
2018-07-15T18:02:41.928Z,74.10
2018-07-15T18:05:10.203Z,74.50
2018-07-15T18:07:38.444Z,73.90
2018-07-15T18:10:07.008Z,74.90
2018-07-15T18:12:35.290Z,74.70
2018-07-15T18:15:04.271Z,75.60
2018-07-15T18:17:32.684Z,74.90
2018-07-15T18:20:01.714Z,75.60
2018-07-15T18:22:29.968Z,75.40
2018-07-15T18:24:58.462Z,75.70
2018-07-15T18:27:27.163Z,76.30
2018-07-15T18:29:55.728Z,76.60
2018-07-15T18:32:24.461Z,76.50
2018-07-15T18:34:53.165Z,77.00
2018-07-15T18:37:21.523Z,77.30
2018-07-15T18:39:51.289Z,77.40
2018-07-15T18:42:19.943Z,77.70
2018-07-15T18:44:48.298Z,79.70
2018-07-15T18:47:16.820Z,78.80
2018-07-15T18:49:45.296Z,78.90
2018-07-15T18:52:13.727Z,80.60
2018-07-15T18:54:42.304Z,79.60
2018-07-15T18:57:10.909Z,80.40
2018-07-15T18:59:40.715Z,80.00
2018-07-15T19:02:09.641Z,81.00
2018-07-15T19:04:38.187Z,81.10
2018-07-15T19:07:06.776Z,81.30
2018-07-15T19:09:35.942Z,81.20
2018-07-15T19:12:04.564Z,81.80
2018-07-15T19:14:32.860Z,82.00
2018-07-15T19:17:01.168Z,81.90
2018-07-15T19:19:29.467Z,82.50
2018-07-15T19:21:57.812Z,82.30
2018-07-15T19:24:26.135Z,83.20
2018-07-15T19:26:54.786Z,83.30
2018-07-15T19:29:23.067Z,83.00
2018-07-15T19:31:51.530Z,84.30
2018-07-15T19:34:19.959Z,84.50
2018-07-15T19:36:48.477Z,84.30
2018-07-15T19:39:16.730Z,86.80
2018-07-15T19:41:45.111Z,85.30
2018-07-15T19:44:13.339Z,88.80
2018-07-15T19:46:42.061Z,88.60
2018-07-15T19:49:10.453Z,88.60
2018-07-15T19:51:38.854Z,85.30
2018-07-15T19:54:07.255Z,90.00
2018-07-15T19:56:35.851Z,90.20
2018-07-15T19:59:04.255Z,89.20
2018-07-15T20:01:32.750Z,90.00
2018-07-15T20:04:01.259Z,91.80
2018-07-15T20:06:29.552Z,93.10
2018-07-15T20:08:57.867Z,91.30
2018-07-15T20:11:26.239Z,91.40
2018-07-15T20:13:54.652Z,93.00
2018-07-15T20:16:23.134Z,93.40
2018-07-15T20:18:51.500Z,93.60
2018-07-15T20:21:19.928Z,94.30
2018-07-15T20:23:48.446Z,95.20
2018-07-15T20:26:16.639Z,95.70
2018-07-15T20:28:45.119Z,96.00
2018-07-15T20:31:13.751Z,95.70
2018-07-15T20:33:41.995Z,96.10
2018-07-15T20:36:10.447Z,97.90
2018-07-15T20:38:38.931Z,96.70
2018-07-15T20:41:07.539Z,96.10
2018-07-15T20:43:35.945Z,98.30
2018-07-15T20:46:04.356Z,98.70
2018-07-15T20:48:33.279Z,99.90
2018-07-15T20:51:01.732Z,99.90
2018-07-15T20:53:30.012Z,99.90
2018-07-15T20:55:58.269Z,99.90
2018-07-15T20:58:26.604Z,99.90
2018-07-15T21:00:54.853Z,99.90
2018-07-15T21:03:23.112Z,99.90
2018-07-15T21:05:51.305Z,99.90
2018-07-15T21:08:19.488Z,99.90
2018-07-15T21:10:47.710Z,99.90
2018-07-15T21:13:15.828Z,99.90
2018-07-15T21:15:44.261Z,99.90
2018-07-15T21:18:12.521Z,99.90
2018-07-15T21:20:40.840Z,99.90
2018-07-15T21:23:09.441Z,99.90
2018-07-15T21:25:37.556Z,99.90
2018-07-15T21:28:06.186Z,99.90
2018-07-15T21:30:34.399Z,99.90
2018-07-15T21:33:02.719Z,99.90
2018-07-15T21:35:30.903Z,99.90
2018-07-15T21:37:59.128Z,99.90
2018-07-15T21:40:27.218Z,99.90
2018-07-15T21:42:55.440Z,99.90
2018-07-15T21:45:23.872Z,99.90
2018-07-15T21:47:52.172Z,99.90
2018-07-15T21:50:20.363Z,99.90
2018-07-15T21:52:48.623Z,99.90
2018-07-15T21:55:16.806Z,99.90
2018-07-15T21:57:45.044Z,99.90
2018-07-15T22:00:13.442Z,99.90
2018-07-15T22:02:41.730Z,99.90
2018-07-15T22:05:09.946Z,99.90
2018-07-15T22:07:44.040Z,99.90
2018-07-15T22:12:40.072Z,99.90
2018-07-15T22:15:08.218Z,99.90
2018-07-15T22:17:36.428Z,99.90
2018-07-15T22:20:04.726Z,99.90
2018-07-15T22:22:32.966Z,99.90
2018-07-15T22:25:01.139Z,99.90
2018-07-15T22:27:29.557Z,99.90
2018-07-15T22:29:57.677Z,99.90
2018-07-15T22:32:25.847Z,99.90
2018-07-15T22:34:54.079Z,99.90
2018-07-15T22:37:22.310Z,99.90
2018-07-15T22:39:50.774Z,99.90
2018-07-15T22:42:19.156Z,99.90
2018-07-15T22:44:47.509Z,99.90
2018-07-15T22:47:15.774Z,99.90
2018-07-15T22:49:44.097Z,99.90
2018-07-15T22:52:12.332Z,99.90
2018-07-15T22:54:40.480Z,99.90
2018-07-15T22:57:08.610Z,99.90
2018-07-15T22:59:36.851Z,99.90
2018-07-15T23:02:05.008Z,99.90
2018-07-15T23:05:45.262Z,99.90
2018-07-15T23:08:13.584Z,99.90
2018-07-15T23:10:41.927Z,99.90
2018-07-15T23:13:10.817Z,99.90
2018-07-15T23:15:39.440Z,99.90
2018-07-15T23:18:07.635Z,99.90
2018-07-15T23:20:36.504Z,99.90
2018-07-15T23:23:05.568Z,99.90
2018-07-15T23:25:33.976Z,99.90
2018-07-15T23:28:02.740Z,99.90
2018-07-15T23:30:31.830Z,99.90
2018-07-15T23:33:00.612Z,99.90
2018-07-15T23:35:29.020Z,99.90
2018-07-15T23:37:57.277Z,99.90
2018-07-15T23:40:25.649Z,99.90
2018-07-15T23:42:54.536Z,99.90
2018-07-15T23:45:23.625Z,99.90
2018-07-15T23:47:51.815Z,99.90
2018-07-15T23:50:20.115Z,99.90
2018-07-15T23:52:48.388Z,99.90
2018-07-15T23:55:16.555Z,99.90
2018-07-15T23:57:44.890Z,99.90
